sensor_id;sensor_type;location;lat;lon;timestamp;P1;durP1;ratioP1;P2;durP2;ratioP2
65658;SDS011;60181;53.258;6.932;2022-10-16T00:02:24;9.80;;;2.50;;
65658;SDS011;60181;53.258;6.932;2022-10-16T00:06:52;10.30;;;2.50;;
65658;SDS011;60181;53.258;6.932;2022-10-16T00:11:22;10.30;;;2.50;;
65658;SDS011;60181;53.258;6.932;2022-10-16T00:15:48;10.50;;;2.30;;
65658;SDS011;60181;53.258;6.932;2022-10-16T00:20:17;10.50;;;2.30;;
65658;SDS011;60181;53.258;6.932;2022-10-16T00:24:44;10.50;;;2.30;;
65658;SDS011;60181;53.258;6.932;2022-10-16T00:29:12;13.50;;;2.50;;
65658;SDS011;60181;53.258;6.932;2022-10-16T00:33:40;13.50;;;2.50;;
65658;SDS011;60181;53.258;6.932;2022-10-16T00:38:09;11.50;;;2.40;;
65658;SDS011;60181;53.258;6.932;2022-10-16T00:42:36;11.50;;;2.40;;
65658;SDS011;60181;53.258;6.932;2022-10-16T00:47:04;10.40;;;2.30;;
65658;SDS011;60181;53.258;6.932;2022-10-16T00:51:33;10.40;;;2.30;;
65658;SDS011;60181;53.258;6.932;2022-10-16T00:56:00;12.60;;;2.50;;
65658;SDS011;60181;53.258;6.932;2022-10-16T01:00:28;12.60;;;2.50;;
65658;SDS011;60181;53.258;6.932;2022-10-16T01:04:56;12.60;;;2.50;;
65658;SDS011;60181;53.258;6.932;2022-10-16T01:13:53;12.30;;;2.40;;
65658;SDS011;60181;53.258;6.932;2022-10-16T01:18:26;7.60;;;2.30;;
65658;SDS011;60181;53.258;6.932;2022-10-16T01:27:21;10.10;;;2.50;;
65658;SDS011;60181;53.258;6.932;2022-10-16T01:31:58;10.10;;;2.50;;
65658;SDS011;60181;53.258;6.932;2022-10-16T01:36:16;6.00;;;2.10;;
65658;SDS011;60181;53.258;6.932;2022-10-16T01:40:41;6.00;;;2.10;;
65658;SDS011;60181;53.258;6.932;2022-10-16T01:45:08;6.00;;;2.10;;
65658;SDS011;60181;53.258;6.932;2022-10-16T01:49:36;6.70;;;2.30;;
65658;SDS011;60181;53.258;6.932;2022-10-16T01:54:04;6.70;;;2.30;;
65658;SDS011;60181;53.258;6.932;2022-10-16T01:58:33;9.30;;;2.10;;
65658;SDS011;60181;53.258;6.932;2022-10-16T02:03:01;9.30;;;2.10;;
65658;SDS011;60181;53.258;6.932;2022-10-16T02:07:28;8.60;;;2.10;;
65658;SDS011;60181;53.258;6.932;2022-10-16T02:11:56;8.60;;;2.10;;
65658;SDS011;60181;53.258;6.932;2022-10-16T02:16:35;9.60;;;2.40;;
65658;SDS011;60181;53.258;6.932;2022-10-16T02:20:57;9.60;;;2.40;;
65658;SDS011;60181;53.258;6.932;2022-10-16T02:25:40;9.70;;;2.30;;
65658;SDS011;60181;53.258;6.932;2022-10-16T02:29:49;9.70;;;2.30;;
65658;SDS011;60181;53.258;6.932;2022-10-16T02:34:16;9.70;;;2.30;;
65658;SDS011;60181;53.258;6.932;2022-10-16T02:38:44;5.80;;;2.20;;
65658;SDS011;60181;53.258;6.932;2022-10-16T02:43:12;5.80;;;2.20;;
65658;SDS011;60181;53.258;6.932;2022-10-16T02:47:40;9.20;;;2.10;;
65658;SDS011;60181;53.258;6.932;2022-10-16T02:52:08;9.20;;;2.10;;
65658;SDS011;60181;53.258;6.932;2022-10-16T02:56:36;9.20;;;2.20;;
65658;SDS011;60181;53.258;6.932;2022-10-16T03:01:04;9.20;;;2.20;;
65658;SDS011;60181;53.258;6.932;2022-10-16T03:05:32;9.30;;;2.20;;
65658;SDS011;60181;53.258;6.932;2022-10-16T03:10:00;9.30;;;2.20;;
65658;SDS011;60181;53.258;6.932;2022-10-16T03:14:28;9.30;;;2.20;;
65658;SDS011;60181;53.258;6.932;2022-10-16T03:18:56;13.70;;;2.90;;
65658;SDS011;60181;53.258;6.932;2022-10-16T03:23:24;13.70;;;2.90;;
65658;SDS011;60181;53.258;6.932;2022-10-16T03:27:52;7.90;;;2.60;;
65658;SDS011;60181;53.258;6.932;2022-10-16T03:32:20;7.90;;;2.60;;
65658;SDS011;60181;53.258;6.932;2022-10-16T03:36:48;9.20;;;2.80;;
65658;SDS011;60181;53.258;6.932;2022-10-16T03:41:16;9.20;;;2.80;;
65658;SDS011;60181;53.258;6.932;2022-10-16T03:45:44;7.20;;;2.80;;
65658;SDS011;60181;53.258;6.932;2022-10-16T03:50:12;7.20;;;2.80;;
65658;SDS011;60181;53.258;6.932;2022-10-16T03:54:40;7.20;;;2.80;;
65658;SDS011;60181;53.258;6.932;2022-10-16T03:59:08;9.10;;;2.60;;
65658;SDS011;60181;53.258;6.932;2022-10-16T04:03:36;9.10;;;2.60;;
65658;SDS011;60181;53.258;6.932;2022-10-16T04:08:04;8.10;;;2.80;;
65658;SDS011;60181;53.258;6.932;2022-10-16T04:12:32;8.10;;;2.80;;
65658;SDS011;60181;53.258;6.932;2022-10-16T04:17:00;6.00;;;2.40;;
65658;SDS011;60181;53.258;6.932;2022-10-16T04:21:28;6.00;;;2.40;;
65658;SDS011;60181;53.258;6.932;2022-10-16T04:25:56;12.00;;;2.70;;
65658;SDS011;60181;53.258;6.932;2022-10-16T04:30:24;12.00;;;2.70;;
65658;SDS011;60181;53.258;6.932;2022-10-16T04:34:52;12.00;;;2.70;;
65658;SDS011;60181;53.258;6.932;2022-10-16T04:39:20;7.20;;;2.50;;
65658;SDS011;60181;53.258;6.932;2022-10-16T04:43:48;7.20;;;2.50;;
65658;SDS011;60181;53.258;6.932;2022-10-16T04:48:16;5.90;;;2.50;;
65658;SDS011;60181;53.258;6.932;2022-10-16T04:52:44;5.90;;;2.50;;
65658;SDS011;60181;53.258;6.932;2022-10-16T04:57:12;7.80;;;2.60;;
65658;SDS011;60181;53.258;6.932;2022-10-16T05:01:40;7.80;;;2.60;;
65658;SDS011;60181;53.258;6.932;2022-10-16T05:06:08;7.40;;;2.20;;
65658;SDS011;60181;53.258;6.932;2022-10-16T05:10:36;7.40;;;2.20;;
65658;SDS011;60181;53.258;6.932;2022-10-16T05:15:04;7.40;;;2.20;;
65658;SDS011;60181;53.258;6.932;2022-10-16T05:19:32;5.60;;;2.50;;
65658;SDS011;60181;53.258;6.932;2022-10-16T05:24:00;5.60;;;2.50;;
65658;SDS011;60181;53.258;6.932;2022-10-16T05:28:29;7.80;;;2.60;;
65658;SDS011;60181;53.258;6.932;2022-10-16T05:32:56;7.80;;;2.60;;
65658;SDS011;60181;53.258;6.932;2022-10-16T05:37:24;6.30;;;2.40;;
65658;SDS011;60181;53.258;6.932;2022-10-16T05:41:52;6.30;;;2.40;;
65658;SDS011;60181;53.258;6.932;2022-10-16T05:46:20;5.80;;;2.40;;
65658;SDS011;60181;53.258;6.932;2022-10-16T05:50:48;5.80;;;2.40;;
65658;SDS011;60181;53.258;6.932;2022-10-16T05:55:16;5.80;;;2.40;;
65658;SDS011;60181;53.258;6.932;2022-10-16T05:59:44;11.80;;;2.90;;
65658;SDS011;60181;53.258;6.932;2022-10-16T06:04:12;11.80;;;2.90;;
65658;SDS011;60181;53.258;6.932;2022-10-16T06:08:40;6.80;;;2.50;;
65658;SDS011;60181;53.258;6.932;2022-10-16T06:13:08;6.80;;;2.50;;
65658;SDS011;60181;53.258;6.932;2022-10-16T06:17:36;6.80;;;2.50;;
65658;SDS011;60181;53.258;6.932;2022-10-16T06:22:04;6.80;;;2.50;;
65658;SDS011;60181;53.258;6.932;2022-10-16T06:26:32;7.70;;;2.40;;
65658;SDS011;60181;53.258;6.932;2022-10-16T06:31:00;7.70;;;2.40;;
65658;SDS011;60181;53.258;6.932;2022-10-16T06:35:28;6.70;;;2.40;;
65658;SDS011;60181;53.258;6.932;2022-10-16T06:39:56;6.70;;;2.40;;
65658;SDS011;60181;53.258;6.932;2022-10-16T06:44:24;6.70;;;2.40;;
65658;SDS011;60181;53.258;6.932;2022-10-16T06:48:52;10.10;;;2.80;;
65658;SDS011;60181;53.258;6.932;2022-10-16T06:53:20;10.10;;;2.80;;
65658;SDS011;60181;53.258;6.932;2022-10-16T06:57:48;8.80;;;2.70;;
65658;SDS011;60181;53.258;6.932;2022-10-16T07:02:16;8.80;;;2.70;;
65658;SDS011;60181;53.258;6.932;2022-10-16T07:06:44;7.50;;;2.40;;
65658;SDS011;60181;53.258;6.932;2022-10-16T07:11:13;7.50;;;2.40;;
65658;SDS011;60181;53.258;6.932;2022-10-16T07:15:40;7.20;;;2.60;;
65658;SDS011;60181;53.258;6.932;2022-10-16T07:20:08;7.20;;;2.60;;
65658;SDS011;60181;53.258;6.932;2022-10-16T07:24:36;7.20;;;2.60;;
65658;SDS011;60181;53.258;6.932;2022-10-16T07:29:04;5.60;;;2.50;;
65658;SDS011;60181;53.258;6.932;2022-10-16T07:33:32;5.60;;;2.50;;
65658;SDS011;60181;53.258;6.932;2022-10-16T07:38:00;3.90;;;2.50;;
65658;SDS011;60181;53.258;6.932;2022-10-16T07:42:28;3.90;;;2.50;;
65658;SDS011;60181;53.258;6.932;2022-10-16T07:46:56;7.10;;;2.70;;
65658;SDS011;60181;53.258;6.932;2022-10-16T07:51:24;7.10;;;2.70;;
65658;SDS011;60181;53.258;6.932;2022-10-16T07:55:52;5.10;;;2.90;;
65658;SDS011;60181;53.258;6.932;2022-10-16T08:00:20;5.10;;;2.90;;
65658;SDS011;60181;53.258;6.932;2022-10-16T08:04:48;5.10;;;2.90;;
65658;SDS011;60181;53.258;6.932;2022-10-16T08:09:16;4.80;;;2.70;;
65658;SDS011;60181;53.258;6.932;2022-10-16T08:13:44;4.80;;;2.70;;
65658;SDS011;60181;53.258;6.932;2022-10-16T08:18:13;8.10;;;2.80;;
65658;SDS011;60181;53.258;6.932;2022-10-16T08:22:40;8.10;;;2.80;;
65658;SDS011;60181;53.258;6.932;2022-10-16T08:27:08;5.90;;;2.80;;
65658;SDS011;60181;53.258;6.932;2022-10-16T08:31:36;5.90;;;2.80;;
65658;SDS011;60181;53.258;6.932;2022-10-16T08:36:04;6.30;;;2.70;;
65658;SDS011;60181;53.258;6.932;2022-10-16T08:40:32;6.30;;;2.70;;
65658;SDS011;60181;53.258;6.932;2022-10-16T08:49:28;17.30;;;5.90;;
65658;SDS011;60181;53.258;6.932;2022-10-16T08:53:56;17.30;;;5.90;;
65658;SDS011;60181;53.258;6.932;2022-10-16T08:58:27;51.80;;;7.70;;
65658;SDS011;60181;53.258;6.932;2022-10-16T09:16:23;30.70;;;6.90;;
65658;SDS011;60181;53.258;6.932;2022-10-16T09:20:55;30.70;;;6.90;;
65658;SDS011;60181;53.258;6.932;2022-10-16T09:25:13;30.70;;;6.90;;
65658;SDS011;60181;53.258;6.932;2022-10-16T09:29:40;26.90;;;6.70;;
65658;SDS011;60181;53.258;6.932;2022-10-16T09:34:28;26.90;;;6.70;;
65658;SDS011;60181;53.258;6.932;2022-10-16T09:38:36;25.10;;;6.60;;
65658;SDS011;60181;53.258;6.932;2022-10-16T09:43:25;25.10;;;6.60;;
65658;SDS011;60181;53.258;6.932;2022-10-16T09:47:32;17.20;;;6.30;;
65658;SDS011;60181;53.258;6.932;2022-10-16T09:52:09;17.20;;;6.30;;
65658;SDS011;60181;53.258;6.932;2022-10-16T09:56:31;15.30;;;5.90;;
65658;SDS011;60181;53.258;6.932;2022-10-16T10:00:55;15.30;;;5.90;;
65658;SDS011;60181;53.258;6.932;2022-10-16T10:05:24;12.70;;;5.50;;
65658;SDS011;60181;53.258;6.932;2022-10-16T10:09:52;12.70;;;5.50;;
65658;SDS011;60181;53.258;6.932;2022-10-16T10:14:23;12.70;;;5.50;;
65658;SDS011;60181;53.258;6.932;2022-10-16T10:18:57;15.50;;;6.10;;
65658;SDS011;60181;53.258;6.932;2022-10-16T10:23:20;15.50;;;6.10;;
65658;SDS011;60181;53.258;6.932;2022-10-16T10:36:40;13.30;;;5.50;;
65658;SDS011;60181;53.258;6.932;2022-10-16T10:45:42;17.30;;;5.20;;
65658;SDS011;60181;53.258;6.932;2022-10-16T11:03:31;15.30;;;5.30;;
65658;SDS011;60181;53.258;6.932;2022-10-16T11:07:59;13.40;;;5.20;;
65658;SDS011;60181;53.258;6.932;2022-10-16T11:12:25;13.40;;;5.20;;
65658;SDS011;60181;53.258;6.932;2022-10-16T11:16:53;10.60;;;5.10;;
65658;SDS011;60181;53.258;6.932;2022-10-16T11:21:19;10.60;;;5.10;;
65658;SDS011;60181;53.258;6.932;2022-10-16T11:25:47;11.70;;;5.00;;
65658;SDS011;60181;53.258;6.932;2022-10-16T11:30:18;11.70;;;5.00;;
65658;SDS011;60181;53.258;6.932;2022-10-16T11:34:53;11.70;;;5.00;;
65658;SDS011;60181;53.258;6.932;2022-10-16T11:43:43;13.40;;;5.30;;
65658;SDS011;60181;53.258;6.932;2022-10-16T11:48:25;16.90;;;6.10;;
65658;SDS011;60181;53.258;6.932;2022-10-16T11:57:08;13.40;;;5.90;;
65658;SDS011;60181;53.258;6.932;2022-10-16T12:01:41;13.40;;;5.90;;
65658;SDS011;60181;53.258;6.932;2022-10-16T12:06:13;15.20;;;5.90;;
65658;SDS011;60181;53.258;6.932;2022-10-16T12:10:28;15.20;;;5.90;;
65658;SDS011;60181;53.258;6.932;2022-10-16T12:15:03;15.20;;;5.90;;
65658;SDS011;60181;53.258;6.932;2022-10-16T12:19:24;14.30;;;5.60;;
65658;SDS011;60181;53.258;6.932;2022-10-16T12:23:52;14.30;;;5.60;;
65658;SDS011;60181;53.258;6.932;2022-10-16T12:28:25;14.90;;;5.60;;
65658;SDS011;60181;53.258;6.932;2022-10-16T12:32:53;14.90;;;5.60;;
65658;SDS011;60181;53.258;6.932;2022-10-16T12:37:22;13.30;;;6.00;;
65658;SDS011;60181;53.258;6.932;2022-10-16T12:41:43;13.30;;;6.00;;
65658;SDS011;60181;53.258;6.932;2022-10-16T12:50:39;15.90;;;6.10;;
65658;SDS011;60181;53.258;6.932;2022-10-16T13:13:03;12.80;;;5.60;;
65658;SDS011;60181;53.258;6.932;2022-10-16T13:30:54;12.90;;;5.60;;
65658;SDS011;60181;53.258;6.932;2022-10-16T13:35:20;12.90;;;5.60;;
65658;SDS011;60181;53.258;6.932;2022-10-16T13:39:47;12.50;;;5.40;;
65658;SDS011;60181;53.258;6.932;2022-10-16T13:44:17;12.50;;;5.40;;
65658;SDS011;60181;53.258;6.932;2022-10-16T13:48:43;11.00;;;5.40;;
65658;SDS011;60181;53.258;6.932;2022-10-16T13:53:14;11.00;;;5.40;;
65658;SDS011;60181;53.258;6.932;2022-10-16T13:57:39;13.20;;;5.50;;
65658;SDS011;60181;53.258;6.932;2022-10-16T14:02:15;13.20;;;5.50;;
65658;SDS011;60181;53.258;6.932;2022-10-16T14:06:36;15.10;;;5.80;;
65658;SDS011;60181;53.258;6.932;2022-10-16T14:11:03;15.10;;;5.80;;
65658;SDS011;60181;53.258;6.932;2022-10-16T14:15:31;14.20;;;5.60;;
65658;SDS011;60181;53.258;6.932;2022-10-16T14:20:00;14.20;;;5.60;;
65658;SDS011;60181;53.258;6.932;2022-10-16T14:24:36;14.20;;;5.60;;
65658;SDS011;60181;53.258;6.932;2022-10-16T14:29:03;11.10;;;5.30;;
65658;SDS011;60181;53.258;6.932;2022-10-16T14:33:32;11.10;;;5.30;;
65658;SDS011;60181;53.258;6.932;2022-10-16T14:37:52;12.20;;;5.40;;
65658;SDS011;60181;53.258;6.932;2022-10-16T14:42:20;12.20;;;5.40;;
65658;SDS011;60181;53.258;6.932;2022-10-16T14:46:47;12.40;;;5.30;;
65658;SDS011;60181;53.258;6.932;2022-10-16T14:51:15;12.40;;;5.30;;
65658;SDS011;60181;53.258;6.932;2022-10-16T14:55:43;15.50;;;5.60;;
65658;SDS011;60181;53.258;6.932;2022-10-16T15:00:21;15.50;;;5.60;;
65658;SDS011;60181;53.258;6.932;2022-10-16T15:04:39;15.50;;;5.60;;
65658;SDS011;60181;53.258;6.932;2022-10-16T15:09:07;12.00;;;5.30;;
65658;SDS011;60181;53.258;6.932;2022-10-16T15:13:35;12.00;;;5.30;;
65658;SDS011;60181;53.258;6.932;2022-10-16T15:18:03;10.60;;;5.00;;
65658;SDS011;60181;53.258;6.932;2022-10-16T15:22:31;10.60;;;5.00;;
65658;SDS011;60181;53.258;6.932;2022-10-16T15:26:59;10.50;;;4.90;;
65658;SDS011;60181;53.258;6.932;2022-10-16T15:31:30;10.50;;;4.90;;
65658;SDS011;60181;53.258;6.932;2022-10-16T15:35:55;12.00;;;5.00;;
65658;SDS011;60181;53.258;6.932;2022-10-16T15:40:23;12.00;;;5.00;;
65658;SDS011;60181;53.258;6.932;2022-10-16T15:44:51;12.00;;;5.00;;
65658;SDS011;60181;53.258;6.932;2022-10-16T15:49:19;13.10;;;5.20;;
65658;SDS011;60181;53.258;6.932;2022-10-16T15:53:47;13.10;;;5.20;;
65658;SDS011;60181;53.258;6.932;2022-10-16T15:58:15;11.30;;;4.70;;
65658;SDS011;60181;53.258;6.932;2022-10-16T16:02:43;11.30;;;4.70;;
65658;SDS011;60181;53.258;6.932;2022-10-16T16:07:11;9.40;;;4.60;;
65658;SDS011;60181;53.258;6.932;2022-10-16T16:11:40;9.40;;;4.60;;
65658;SDS011;60181;53.258;6.932;2022-10-16T16:16:11;12.20;;;4.70;;
65658;SDS011;60181;53.258;6.932;2022-10-16T16:20:35;12.20;;;4.70;;
65658;SDS011;60181;53.258;6.932;2022-10-16T16:25:09;12.20;;;4.70;;
65658;SDS011;60181;53.258;6.932;2022-10-16T16:29:31;11.10;;;4.70;;
65658;SDS011;60181;53.258;6.932;2022-10-16T16:33:59;11.10;;;4.70;;
65658;SDS011;60181;53.258;6.932;2022-10-16T16:38:27;12.20;;;4.80;;
65658;SDS011;60181;53.258;6.932;2022-10-16T16:42:55;12.20;;;4.80;;
65658;SDS011;60181;53.258;6.932;2022-10-16T16:47:23;17.40;;;5.00;;
65658;SDS011;60181;53.258;6.932;2022-10-16T16:51:52;17.40;;;5.00;;
65658;SDS011;60181;53.258;6.932;2022-10-16T16:56:19;12.40;;;5.10;;
65658;SDS011;60181;53.258;6.932;2022-10-16T17:00:47;12.40;;;5.10;;
65658;SDS011;60181;53.258;6.932;2022-10-16T17:05:15;12.40;;;5.10;;
65658;SDS011;60181;53.258;6.932;2022-10-16T17:09:43;12.30;;;5.10;;
65658;SDS011;60181;53.258;6.932;2022-10-16T17:14:11;12.30;;;5.10;;
65658;SDS011;60181;53.258;6.932;2022-10-16T17:18:39;10.20;;;4.70;;
65658;SDS011;60181;53.258;6.932;2022-10-16T17:23:07;10.20;;;4.70;;
65658;SDS011;60181;53.258;6.932;2022-10-16T17:27:35;10.60;;;4.70;;
65658;SDS011;60181;53.258;6.932;2022-10-16T17:32:03;10.60;;;4.70;;
65658;SDS011;60181;53.258;6.932;2022-10-16T17:36:32;10.00;;;4.70;;
65658;SDS011;60181;53.258;6.932;2022-10-16T17:41:08;10.00;;;4.70;;
65658;SDS011;60181;53.258;6.932;2022-10-16T17:45:27;10.00;;;4.70;;
65658;SDS011;60181;53.258;6.932;2022-10-16T17:49:55;11.30;;;4.80;;
65658;SDS011;60181;53.258;6.932;2022-10-16T17:54:23;11.30;;;4.80;;
65658;SDS011;60181;53.258;6.932;2022-10-16T17:58:52;9.40;;;4.40;;
65658;SDS011;60181;53.258;6.932;2022-10-16T18:03:19;9.40;;;4.40;;
65658;SDS011;60181;53.258;6.932;2022-10-16T18:07:47;10.20;;;4.30;;
65658;SDS011;60181;53.258;6.932;2022-10-16T18:12:15;10.20;;;4.30;;
65658;SDS011;60181;53.258;6.932;2022-10-16T18:16:43;10.50;;;4.50;;
65658;SDS011;60181;53.258;6.932;2022-10-16T18:21:12;10.50;;;4.50;;
65658;SDS011;60181;53.258;6.932;2022-10-16T18:25:39;11.40;;;4.40;;
65658;SDS011;60181;53.258;6.932;2022-10-16T18:30:07;11.40;;;4.40;;
65658;SDS011;60181;53.258;6.932;2022-10-16T18:34:35;11.40;;;4.40;;
65658;SDS011;60181;53.258;6.932;2022-10-16T18:39:04;9.80;;;4.70;;
65658;SDS011;60181;53.258;6.932;2022-10-16T18:43:34;9.80;;;4.70;;
65658;SDS011;60181;53.258;6.932;2022-10-16T18:47:59;9.10;;;4.30;;
65658;SDS011;60181;53.258;6.932;2022-10-16T18:52:27;9.10;;;4.30;;
65658;SDS011;60181;53.258;6.932;2022-10-16T18:56:55;10.70;;;4.00;;
65658;SDS011;60181;53.258;6.932;2022-10-16T19:01:23;10.70;;;4.00;;
65658;SDS011;60181;53.258;6.932;2022-10-16T19:05:51;12.40;;;5.10;;
65658;SDS011;60181;53.258;6.932;2022-10-16T19:10:19;12.40;;;5.10;;
65658;SDS011;60181;53.258;6.932;2022-10-16T19:14:47;12.40;;;5.10;;
65658;SDS011;60181;53.258;6.932;2022-10-16T19:19:15;9.70;;;4.40;;
65658;SDS011;60181;53.258;6.932;2022-10-16T19:23:43;9.70;;;4.40;;
65658;SDS011;60181;53.258;6.932;2022-10-16T19:28:11;10.70;;;4.20;;
65658;SDS011;60181;53.258;6.932;2022-10-16T19:32:39;10.70;;;4.20;;
65658;SDS011;60181;53.258;6.932;2022-10-16T19:37:07;16.50;;;4.50;;
65658;SDS011;60181;53.258;6.932;2022-10-16T19:41:35;16.50;;;4.50;;
65658;SDS011;60181;53.258;6.932;2022-10-16T19:46:03;8.30;;;4.20;;
65658;SDS011;60181;53.258;6.932;2022-10-16T19:50:31;8.30;;;4.20;;
65658;SDS011;60181;53.258;6.932;2022-10-16T19:54:59;8.30;;;4.20;;
65658;SDS011;60181;53.258;6.932;2022-10-16T19:59:27;9.40;;;4.30;;
65658;SDS011;60181;53.258;6.932;2022-10-16T20:03:55;9.40;;;4.30;;
65658;SDS011;60181;53.258;6.932;2022-10-16T20:08:23;10.50;;;4.20;;
65658;SDS011;60181;53.258;6.932;2022-10-16T20:12:51;10.50;;;4.20;;
65658;SDS011;60181;53.258;6.932;2022-10-16T20:17:19;9.60;;;4.30;;
65658;SDS011;60181;53.258;6.932;2022-10-16T20:21:47;9.60;;;4.30;;
65658;SDS011;60181;53.258;6.932;2022-10-16T20:26:15;11.10;;;4.40;;
65658;SDS011;60181;53.258;6.932;2022-10-16T20:30:43;11.10;;;4.40;;
65658;SDS011;60181;53.258;6.932;2022-10-16T20:35:11;11.10;;;4.40;;
65658;SDS011;60181;53.258;6.932;2022-10-16T20:39:39;9.40;;;4.00;;
65658;SDS011;60181;53.258;6.932;2022-10-16T20:44:07;9.40;;;4.00;;
65658;SDS011;60181;53.258;6.932;2022-10-16T20:48:35;10.70;;;4.40;;
65658;SDS011;60181;53.258;6.932;2022-10-16T20:53:03;10.70;;;4.40;;
65658;SDS011;60181;53.258;6.932;2022-10-16T20:57:31;10.10;;;4.50;;
65658;SDS011;60181;53.258;6.932;2022-10-16T21:01:59;10.10;;;4.50;;
65658;SDS011;60181;53.258;6.932;2022-10-16T21:06:27;6.90;;;3.90;;
65658;SDS011;60181;53.258;6.932;2022-10-16T21:10:55;6.90;;;3.90;;
65658;SDS011;60181;53.258;6.932;2022-10-16T21:15:23;6.90;;;3.90;;
65658;SDS011;60181;53.258;6.932;2022-10-16T21:19:51;18.20;;;7.10;;
65658;SDS011;60181;53.258;6.932;2022-10-16T21:24:19;18.20;;;7.10;;
65658;SDS011;60181;53.258;6.932;2022-10-16T21:28:47;28.60;;;10.00;;
65658;SDS011;60181;53.258;6.932;2022-10-16T21:33:15;28.60;;;10.00;;
65658;SDS011;60181;53.258;6.932;2022-10-16T21:37:47;23.90;;;8.70;;
65658;SDS011;60181;53.258;6.932;2022-10-16T21:42:10;23.90;;;8.70;;
65658;SDS011;60181;53.258;6.932;2022-10-16T21:46:40;35.40;;;15.20;;
65658;SDS011;60181;53.258;6.932;2022-10-16T21:51:06;35.40;;;15.20;;
65658;SDS011;60181;53.258;6.932;2022-10-16T21:55:35;31.30;;;12.00;;
65658;SDS011;60181;53.258;6.932;2022-10-16T22:00:03;31.30;;;12.00;;
65658;SDS011;60181;53.258;6.932;2022-10-16T22:04:30;31.30;;;12.00;;
65658;SDS011;60181;53.258;6.932;2022-10-16T22:08:59;24.10;;;8.90;;
65658;SDS011;60181;53.258;6.932;2022-10-16T22:13:26;24.10;;;8.90;;
65658;SDS011;60181;53.258;6.932;2022-10-16T22:17:54;22.20;;;6.90;;
65658;SDS011;60181;53.258;6.932;2022-10-16T22:22:22;22.20;;;6.90;;
65658;SDS011;60181;53.258;6.932;2022-10-16T22:26:50;19.70;;;6.50;;
65658;SDS011;60181;53.258;6.932;2022-10-16T22:31:18;19.70;;;6.50;;
65658;SDS011;60181;53.258;6.932;2022-10-16T22:35:46;17.50;;;6.30;;
65658;SDS011;60181;53.258;6.932;2022-10-16T22:40:14;17.50;;;6.30;;
65658;SDS011;60181;53.258;6.932;2022-10-16T22:44:42;17.50;;;6.30;;
65658;SDS011;60181;53.258;6.932;2022-10-16T22:49:10;20.50;;;6.40;;
65658;SDS011;60181;53.258;6.932;2022-10-16T22:53:38;20.50;;;6.40;;
65658;SDS011;60181;53.258;6.932;2022-10-16T22:58:06;17.80;;;5.90;;
65658;SDS011;60181;53.258;6.932;2022-10-16T23:02:34;17.80;;;5.90;;
65658;SDS011;60181;53.258;6.932;2022-10-16T23:07:02;20.90;;;7.90;;
65658;SDS011;60181;53.258;6.932;2022-10-16T23:11:30;20.90;;;7.90;;
65658;SDS011;60181;53.258;6.932;2022-10-16T23:15:58;21.00;;;8.30;;
65658;SDS011;60181;53.258;6.932;2022-10-16T23:20:26;21.00;;;8.30;;
65658;SDS011;60181;53.258;6.932;2022-10-16T23:24:54;21.00;;;8.30;;
65658;SDS011;60181;53.258;6.932;2022-10-16T23:29:22;20.70;;;8.60;;
65658;SDS011;60181;53.258;6.932;2022-10-16T23:33:50;20.70;;;8.60;;
65658;SDS011;60181;53.258;6.932;2022-10-16T23:38:18;20.10;;;8.50;;
65658;SDS011;60181;53.258;6.932;2022-10-16T23:42:46;20.10;;;8.50;;
65658;SDS011;60181;53.258;6.932;2022-10-16T23:47:14;21.20;;;7.20;;
65658;SDS011;60181;53.258;6.932;2022-10-16T23:51:42;21.20;;;7.20;;
65658;SDS011;60181;53.258;6.932;2022-10-16T23:56:10;18.00;;;6.50;;
